Time;durP1;ratioP1;P1;durP2;ratioP2;P2;SDS_P1;SDS_P2;PMS_P1;PMS_P2;Temp;Humidity;BMP_temperature;BMP_pressure;BME280_temperature;BME280_humidity;BME280_pressure;Samples;Min_cycle;Max_cycle;Signal;HPM_P1;HPM_P2
2022/07/06 00:01:14;;;;;;;1.50;1.30;;;18.50;99.90;;;;;;5037204;28;20212;-83
2022/07/06 00:03:40;;;;;;;0.60;0.30;;;18.30;99.90;;;;;;5038907;28;20179;-83
2022/07/06 00:06:05;;;;;;;0.30;0.30;;;18.20;99.90;;;;;;5035665;28;20185;-83
2022/07/06 00:08:31;;;;;;;0.50;0.50;;;18.20;99.90;;;;;;5037288;28;20679;-84
2022/07/06 00:10:56;;;;;;;0.87;0.40;;;18.10;99.90;;;;;;5038088;28;20207;-83
2022/07/06 00:13:22;;;;;;;0.30;0.30;;;18.00;99.90;;;;;;5034976;28;20191;-82
2022/07/06 00:15:47;;;;;;;0.37;0.33;;;18.00;99.90;;;;;;5036730;28;20236;-83
2022/07/06 00:18:13;;;;;;;0.63;0.63;;;18.00;99.90;;;;;;5038977;28;20192;-83
2022/07/06 00:20:38;;;;;;;0.40;0.40;;;18.00;99.90;;;;;;5043921;28;20231;-83
2022/07/06 00:23:04;;;;;;;0.17;0.13;;;17.90;99.90;;;;;;5036421;28;20185;-83
2022/07/06 00:25:29;;;;;;;0.20;0.20;;;17.90;99.90;;;;;;5038291;28;20198;-83
2022/07/06 00:27:55;;;;;;;0.43;0.43;;;17.90;99.90;;;;;;5036296;28;20282;-83
2022/07/06 00:30:20;;;;;;;0.40;0.40;;;17.70;99.90;;;;;;5036378;28;20205;-83
2022/07/06 00:32:46;;;;;;;0.30;0.30;;;17.60;99.90;;;;;;5037262;28;20177;-83
2022/07/06 00:35:11;;;;;;;0.77;0.60;;;17.60;99.90;;;;;;5035380;28;20186;-83
2022/07/06 00:37:37;;;;;;;0.43;0.43;;;17.60;99.90;;;;;;5043150;28;20189;-83
2022/07/06 00:40:03;;;;;;;0.30;0.30;;;17.60;99.90;;;;;;5036377;28;20201;-82
2022/07/06 00:42:28;;;;;;;0.47;0.40;;;17.60;99.90;;;;;;5036921;28;20185;-82
2022/07/06 00:44:54;;;;;;;0.20;0.20;;;17.70;99.90;;;;;;5034321;28;20208;-83
2022/07/06 00:47:19;;;;;;;0.23;0.23;;;17.70;99.90;;;;;;5034755;28;20187;-83
2022/07/06 00:52:29;;;;;;;0.30;0.30;;;17.70;99.90;;;;;;5035735;28;20207;-83
2022/07/06 00:54:54;;;;;;;0.30;0.30;;;17.70;99.90;;;;;;5036745;28;20189;-82
2022/07/06 00:57:20;;;;;;;0.30;0.30;;;17.70;99.90;;;;;;5036293;28;20213;-82
2022/07/06 00:59:46;;;;;;;0.40;0.40;;;17.60;99.90;;;;;;5033582;28;20202;-83
2022/07/06 01:02:11;;;;;;;0.30;0.30;;;17.60;99.90;;;;;;5037406;28;20189;-82
2022/07/06 01:04:37;;;;;;;0.20;0.20;;;17.50;99.90;;;;;;5035918;28;20190;-83
2022/07/06 01:07:02;;;;;;;0.30;0.30;;;17.50;99.90;;;;;;5035406;28;20213;-83
2022/07/06 01:09:28;;;;;;;0.33;0.30;;;17.50;99.90;;;;;;5034306;28;20193;-83
2022/07/06 01:11:54;;;;;;;0.17;0.17;;;17.50;99.90;;;;;;5032116;28;20256;-83
2022/07/06 01:14:20;;;;;;;0.40;0.40;;;17.30;99.90;;;;;;5035987;28;20181;-82
2022/07/06 01:16:46;;;;;;;0.23;0.23;;;17.20;99.90;;;;;;5035863;28;20210;-82
2022/07/06 01:19:11;;;;;;;0.30;0.30;;;17.20;99.90;;;;;;5037075;28;20536;-82
2022/07/06 01:21:40;;;;;;;0.20;0.20;;;17.10;99.90;;;;;;5034691;28;20220;-83
2022/07/06 01:24:06;;;;;;;0.43;0.43;;;17.10;99.90;;;;;;5035374;28;20200;-83
2022/07/06 01:26:32;;;;;;;0.77;0.77;;;17.10;99.90;;;;;;5035884;28;20216;-83
2022/07/06 01:28:57;;;;;;;0.10;0.10;;;17.10;99.90;;;;;;5034981;28;20194;-83
2022/07/06 01:31:25;;;;;;;0.47;0.47;;;17.00;99.90;;;;;;5034746;28;20205;-83
2022/07/06 01:33:53;;;;;;;0.50;0.47;;;16.80;99.90;;;;;;5035538;28;20209;-83
2022/07/06 01:36:19;;;;;;;0.20;0.20;;;16.80;99.90;;;;;;5035806;28;20693;-83
2022/07/06 01:38:50;;;;;;;0.37;0.37;;;16.70;99.90;;;;;;5032087;28;20534;-83
2022/07/06 01:41:16;;;;;;;0.47;0.30;;;16.70;99.90;;;;;;5034420;28;20292;-83
2022/07/06 01:43:42;;;;;;;0.27;0.27;;;16.60;99.90;;;;;;5036086;28;20369;-83
2022/07/06 01:46:08;;;;;;;0.20;0.20;;;16.70;99.90;;;;;;5034348;28;20701;-83
2022/07/06 01:48:34;;;;;;;0.13;0.13;;;16.60;99.90;;;;;;5038733;28;20305;-83
2022/07/06 01:50:59;;;;;;;0.20;0.20;;;16.60;99.90;;;;;;5060147;28;20213;-83
2022/07/06 01:53:25;;;;;;;0.20;0.20;;;16.60;99.90;;;;;;5038610;28;21052;-82
2022/07/06 01:55:50;;;;;;;0.20;0.20;;;16.60;99.90;;;;;;5038297;28;20233;-82
2022/07/06 01:58:16;;;;;;;0.43;0.43;;;16.40;99.90;;;;;;5036644;28;20231;-83
2022/07/06 02:00:41;;;;;;;0.43;0.37;;;16.40;99.90;;;;;;5037847;28;20205;-83
2022/07/06 02:03:07;;;;;;;0.20;0.20;;;16.40;99.90;;;;;;5039876;28;20239;-84
2022/07/06 02:05:32;;;;;;;0.30;0.30;;;16.40;99.90;;;;;;5036683;28;21182;-84
2022/07/06 02:07:58;;;;;;;0.40;0.40;;;16.30;99.90;;;;;;5038101;28;20221;-83
2022/07/06 02:10:23;;;;;;;0.20;0.20;;;16.30;99.90;;;;;;5038442;28;20214;-84
2022/07/06 02:12:49;;;;;;;0.20;0.20;;;16.20;99.90;;;;;;5039082;28;20205;-83
2022/07/06 02:15:15;;;;;;;0.20;0.20;;;16.10;99.90;;;;;;5038692;28;20194;-83
2022/07/06 02:17:40;;;;;;;0.30;0.20;;;16.00;99.90;;;;;;5038711;28;20182;-82
2022/07/06 02:20:06;;;;;;;0.40;0.40;;;16.00;99.90;;;;;;5039275;28;20219;-83
2022/07/06 02:22:32;;;;;;;0.20;0.20;;;16.00;99.90;;;;;;5038330;28;20186;-83
2022/07/06 02:24:58;;;;;;;0.27;0.20;;;16.00;99.90;;;;;;5038748;28;20578;-83
2022/07/06 02:27:24;;;;;;;0.37;0.30;;;16.00;99.90;;;;;;5037471;28;20216;-83
2022/07/06 02:29:50;;;;;;;0.73;0.20;;;15.90;99.90;;;;;;5039447;28;20684;-84
2022/07/06 02:32:16;;;;;;;0.50;0.30;;;16.00;99.90;;;;;;5037999;28;20190;-82
2022/07/06 02:34:41;;;;;;;0.20;0.20;;;16.00;99.90;;;;;;5037793;28;20647;-83
2022/07/06 02:37:07;;;;;;;0.53;0.53;;;15.90;99.90;;;;;;5036241;28;20206;-84
2022/07/06 02:39:32;;;;;;;0.50;0.40;;;15.80;99.90;;;;;;5037444;28;20264;-84
2022/07/06 02:41:58;;;;;;;0.37;0.37;;;15.80;99.90;;;;;;5036736;28;20279;-82
2022/07/06 02:44:23;;;;;;;0.30;0.30;;;15.80;99.90;;;;;;5036515;28;21179;-83
2022/07/06 02:46:50;;;;;;;1.07;0.30;;;15.80;99.90;;;;;;5035813;28;20206;-83
2022/07/06 02:49:15;;;;;;;0.30;0.30;;;15.70;99.90;;;;;;5037609;28;20199;-83
2022/07/06 02:51:41;;;;;;;0.27;0.27;;;15.70;99.90;;;;;;5039192;28;20289;-83
2022/07/06 02:54:06;;;;;;;0.20;0.20;;;15.60;99.90;;;;;;5036649;28;20191;-83
2022/07/06 02:56:32;;;;;;;1.10;0.60;;;15.50;99.90;;;;;;5035261;28;20206;-83
2022/07/06 02:58:57;;;;;;;1.20;0.37;;;15.40;99.90;;;;;;5037869;28;20186;-82
2022/07/06 03:01:23;;;;;;;0.20;0.20;;;15.40;99.90;;;;;;5037345;28;20200;-83
2022/07/06 03:03:48;;;;;;;0.50;0.47;;;15.30;99.90;;;;;;5037087;28;20305;-82
2022/07/06 03:06:14;;;;;;;0.27;0.27;;;15.30;99.90;;;;;;5030163;28;20192;-82
2022/07/06 03:08:39;;;;;;;0.30;0.30;;;15.20;99.90;;;;;;5035274;28;20188;-83
2022/07/06 03:11:05;;;;;;;0.30;0.30;;;15.20;99.90;;;;;;5034296;28;20328;-82
2022/07/06 03:13:31;;;;;;;0.20;0.20;;;15.10;99.90;;;;;;5037053;28;20804;-82
2022/07/06 03:15:56;;;;;;;0.20;0.20;;;15.00;99.90;;;;;;5037466;28;20216;-83
2022/07/06 03:18:22;;;;;;;0.20;0.20;;;15.00;99.90;;;;;;5036760;28;20182;-84
2022/07/06 03:20:48;;;;;;;0.30;0.30;;;15.00;99.90;;;;;;5039338;28;20225;-83
2022/07/06 03:23:13;;;;;;;0.30;0.30;;;15.00;99.90;;;;;;5037240;28;20203;-83
2022/07/06 03:25:39;;;;;;;0.30;0.30;;;15.00;99.90;;;;;;5036918;28;20225;-83
2022/07/06 03:28:05;;;;;;;0.37;0.37;;;14.90;99.90;;;;;;5035009;28;20188;-83
2022/07/06 03:30:30;;;;;;;0.20;0.20;;;15.00;99.90;;;;;;5036558;28;20211;-83
2022/07/06 03:32:56;;;;;;;0.30;0.30;;;15.00;99.90;;;;;;5037555;28;20197;-82
2022/07/06 03:35:21;;;;;;;0.47;0.47;;;15.00;99.90;;;;;;5035336;28;20231;-82
2022/07/06 03:37:47;;;;;;;0.97;0.97;;;15.00;99.90;;;;;;5034936;28;20209;-82
2022/07/06 03:40:13;;;;;;;0.30;0.30;;;15.00;99.90;;;;;;5042177;28;20267;-82
2022/07/06 03:42:39;;;;;;;0.83;0.53;;;15.00;99.90;;;;;;5035793;28;20192;-83
2022/07/06 03:45:05;;;;;;;0.60;0.50;;;15.20;99.90;;;;;;5035797;28;20197;-83
2022/07/06 03:47:31;;;;;;;0.63;0.30;;;15.60;99.90;;;;;;5058083;28;20305;-83
2022/07/06 03:49:56;;;;;;;0.37;0.37;;;15.50;99.90;;;;;;5036250;28;20300;-82
2022/07/06 03:52:22;;;;;;;0.33;0.33;;;15.70;99.90;;;;;;5036880;28;20193;-82
2022/07/06 03:54:48;;;;;;;0.30;0.30;;;15.80;99.90;;;;;;5035079;28;20194;-83
2022/07/06 03:57:13;;;;;;;0.87;0.23;;;16.00;99.90;;;;;;5037542;28;20198;-83
2022/07/06 03:59:39;;;;;;;0.23;0.23;;;15.90;99.90;;;;;;5042482;28;20186;-84
2022/07/06 04:02:05;;;;;;;0.30;0.30;;;16.50;99.90;;;;;;5035299;28;20244;-83
2022/07/06 04:04:33;;;;;;;0.37;0.37;;;16.70;99.90;;;;;;5036133;28;20193;-84
2022/07/06 04:06:58;;;;;;;0.30;0.30;;;17.10;99.90;;;;;;5034977;28;20287;-83
2022/07/06 04:09:24;;;;;;;0.20;0.20;;;17.70;99.90;;;;;;5033336;28;20277;-83
2022/07/06 04:11:49;;;;;;;0.20;0.20;;;18.30;99.90;;;;;;5033330;28;20194;-83
2022/07/06 04:14:15;;;;;;;0.80;0.80;;;17.90;99.90;;;;;;5043134;28;20239;-83
2022/07/06 04:16:40;;;;;;;0.50;0.50;;;17.80;99.90;;;;;;5042371;28;20270;-84
2022/07/06 04:19:06;;;;;;;2.70;0.90;;;17.50;99.90;;;;;;5045231;28;20190;-83
2022/07/06 04:21:31;;;;;;;0.90;0.50;;;17.90;99.90;;;;;;5036636;28;20209;-83
2022/07/06 04:23:57;;;;;;;0.20;0.20;;;17.50;99.90;;;;;;5035666;28;20185;-84
2022/07/06 04:26:23;;;;;;;0.20;0.20;;;18.10;99.90;;;;;;5034823;28;20181;-83
2022/07/06 04:28:48;;;;;;;0.30;0.30;;;17.80;99.90;;;;;;5035183;28;20269;-84
2022/07/06 04:31:15;;;;;;;0.33;0.33;;;17.50;99.90;;;;;;5036848;28;20202;-83
2022/07/06 04:33:42;;;;;;;0.20;0.20;;;16.80;99.90;;;;;;5038323;28;20353;-83
2022/07/06 04:36:09;;;;;;;0.20;0.20;;;16.40;99.90;;;;;;5036105;28;20255;-84
2022/07/06 04:38:34;;;;;;;0.40;0.20;;;16.30;99.90;;;;;;5038626;28;20178;-84
2022/07/06 04:41:00;;;;;;;1.20;0.30;;;16.20;99.90;;;;;;5037665;28;20732;-82
2022/07/06 04:43:25;;;;;;;0.40;0.30;;;16.30;99.90;;;;;;5037721;28;20178;-83
2022/07/06 04:45:51;;;;;;;0.30;0.20;;;16.10;99.90;;;;;;5036653;28;22129;-83
2022/07/06 04:48:17;;;;;;;1.30;1.20;;;16.00;99.90;;;;;;5036431;28;20196;-83
2022/07/06 04:50:42;;;;;;;0.20;0.20;;;16.00;99.90;;;;;;5033873;28;20268;-83
2022/07/06 04:53:08;;;;;;;0.43;0.43;;;16.00;99.90;;;;;;5036545;28;20186;-84
2022/07/06 04:55:34;;;;;;;0.10;0.10;;;16.10;99.90;;;;;;5035922;28;20206;-84
2022/07/06 04:57:59;;;;;;;0.47;0.47;;;16.20;99.90;;;;;;5037084;28;20223;-84
2022/07/06 05:00:25;;;;;;;0.30;0.30;;;15.80;99.90;;;;;;5036934;28;20198;-83
2022/07/06 05:02:50;;;;;;;0.13;0.13;;;15.80;99.90;;;;;;5036008;28;20197;-83
2022/07/06 05:05:16;;;;;;;1.60;0.50;;;15.80;99.90;;;;;;5036708;28;20196;-83
2022/07/06 05:07:41;;;;;;;0.10;0.10;;;15.90;99.90;;;;;;5034477;28;20188;-84
2022/07/06 05:10:11;;;;;;;0.60;0.60;;;15.80;99.90;;;;;;5034316;28;20233;-84
2022/07/06 05:12:37;;;;;;;0.20;0.20;;;15.50;99.90;;;;;;5035459;28;20193;-83
2022/07/06 05:15:03;;;;;;;1.07;0.30;;;15.50;99.90;;;;;;5035396;28;20277;-81
2022/07/06 05:17:29;;;;;;;0.17;0.17;;;15.70;99.90;;;;;;5033523;28;20620;-81
2022/07/06 05:19:54;;;;;;;2.63;0.60;;;15.80;99.90;;;;;;5036765;28;20209;-84
2022/07/06 05:22:20;;;;;;;0.20;0.20;;;15.70;99.90;;;;;;5036798;28;20189;-83
2022/07/06 05:24:46;;;;;;;0.43;0.43;;;15.80;99.90;;;;;;5039452;28;20668;-83
2022/07/06 05:27:11;;;;;;;2.37;0.50;;;15.90;99.90;;;;;;5040232;28;20178;-84
2022/07/06 05:29:37;;;;;;;0.60;0.40;;;15.90;99.90;;;;;;5037318;28;20607;-84
2022/07/06 05:32:03;;;;;;;0.60;0.60;;;16.00;99.90;;;;;;5045732;28;20204;-83
2022/07/06 05:34:29;;;;;;;0.43;0.40;;;15.90;99.90;;;;;;5039437;28;20251;-83
2022/07/06 05:36:54;;;;;;;0.30;0.30;;;16.00;99.90;;;;;;5038685;28;20248;-84
2022/07/06 05:39:22;;;;;;;1.23;0.50;;;16.10;99.90;;;;;;5040976;28;20200;-83
2022/07/06 05:41:48;;;;;;;0.33;0.33;;;16.20;99.90;;;;;;5040465;28;20187;-84
2022/07/06 05:44:14;;;;;;;0.57;0.30;;;16.10;99.90;;;;;;5038519;28;20196;-84
2022/07/06 05:46:39;;;;;;;0.30;0.30;;;16.20;99.90;;;;;;5037703;28;20189;-83
2022/07/06 05:51:49;;;;;;;0.73;0.70;;;16.30;99.90;;;;;;5041218;28;20307;-84
2022/07/06 05:54:15;;;;;;;0.40;0.40;;;16.30;99.90;;;;;;5038849;28;20652;-84
2022/07/06 05:56:40;;;;;;;0.20;0.20;;;16.10;99.90;;;;;;5039932;28;20288;-83
2022/07/06 05:59:06;;;;;;;1.20;0.57;;;16.10;99.90;;;;;;5037911;28;20185;-83
2022/07/06 06:01:32;;;;;;;0.20;0.20;;;16.30;99.90;;;;;;5040231;28;20221;-84
2022/07/06 06:03:59;;;;;;;0.20;0.20;;;16.50;99.90;;;;;;5038974;28;20356;-82
2022/07/06 06:06:25;;;;;;;0.60;0.60;;;16.40;99.90;;;;;;5040323;28;21884;-84
2022/07/06 06:08:50;;;;;;;0.20;0.20;;;16.30;99.90;;;;;;5040789;28;20186;-83
2022/07/06 06:11:16;;;;;;;0.37;0.37;;;16.30;99.90;;;;;;5046026;28;20405;-84
2022/07/06 06:13:42;;;;;;;1.03;0.73;;;16.50;99.90;;;;;;5040125;28;20201;-83
2022/07/06 06:16:07;;;;;;;0.20;0.20;;;16.20;99.90;;;;;;5038857;28;20220;-83
2022/07/06 06:18:33;;;;;;;0.40;0.40;;;16.20;99.90;;;;;;5037586;28;20189;-82
2022/07/06 06:20:59;;;;;;;0.17;0.17;;;16.30;99.90;;;;;;5037101;28;20209;-83
2022/07/06 06:23:24;;;;;;;0.50;0.50;;;16.70;99.90;;;;;;5035294;28;20212;-84
2022/07/06 06:25:50;;;;;;;0.47;0.47;;;16.60;99.90;;;;;;5038617;28;20194;-83
2022/07/06 06:28:15;;;;;;;1.63;0.93;;;16.40;99.90;;;;;;5036432;28;20194;-83
2022/07/06 06:30:41;;;;;;;0.60;0.60;;;16.40;99.90;;;;;;5036958;28;20332;-83
2022/07/06 06:33:12;;;;;;;0.40;0.40;;;16.50;99.90;;;;;;5033950;28;20193;-83
2022/07/06 06:35:43;;;;;;;0.30;0.30;;;16.40;99.90;;;;;;5038017;28;20214;-83
2022/07/06 06:38:09;;;;;;;0.47;0.47;;;16.40;99.90;;;;;;5036497;28;20243;-84
2022/07/06 06:40:34;;;;;;;0.40;0.40;;;16.20;99.90;;;;;;5037109;28;20574;-82
2022/07/06 06:43:00;;;;;;;0.33;0.13;;;16.40;99.90;;;;;;5038663;28;20221;-82
2022/07/06 06:45:26;;;;;;;0.30;0.30;;;16.60;99.90;;;;;;5038746;28;20205;-83
2022/07/06 06:47:51;;;;;;;0.40;0.40;;;16.80;99.90;;;;;;5037765;28;20190;-84
2022/07/06 06:50:17;;;;;;;0.17;0.17;;;16.90;99.90;;;;;;5038821;28;20194;-82
2022/07/06 06:52:42;;;;;;;0.20;0.20;;;17.20;99.90;;;;;;5037267;28;20217;-85
2022/07/06 06:55:09;;;;;;;0.30;0.30;;;17.20;99.90;;;;;;5036485;28;20182;-84
2022/07/06 06:57:34;;;;;;;0.20;0.20;;;17.20;99.90;;;;;;5058480;28;20229;-83
2022/07/06 07:00:00;;;;;;;0.43;0.37;;;17.20;99.90;;;;;;5037398;28;20303;-83
2022/07/06 07:02:25;;;;;;;0.63;0.50;;;17.30;99.90;;;;;;5038543;28;20227;-83
2022/07/06 07:04:51;;;;;;;0.20;0.20;;;17.30;99.90;;;;;;5036689;28;20188;-81
2022/07/06 07:07:17;;;;;;;0.33;0.33;;;17.60;99.90;;;;;;5034594;28;20186;-82
2022/07/06 07:09:42;;;;;;;0.20;0.20;;;17.80;99.90;;;;;;5036532;28;20221;-84
2022/07/06 07:12:08;;;;;;;0.20;0.20;;;17.70;99.90;;;;;;5033959;28;20836;-83
2022/07/06 07:14:33;;;;;;;0.47;0.47;;;17.70;99.90;;;;;;5038082;28;20184;-83
2022/07/06 07:16:59;;;;;;;0.30;0.30;;;17.50;99.90;;;;;;5037716;28;20237;-83
2022/07/06 07:19:24;;;;;;;0.20;0.20;;;17.70;99.90;;;;;;5059385;28;20551;-83
2022/07/06 07:21:50;;;;;;;0.33;0.20;;;17.90;99.90;;;;;;5037899;28;20803;-83
2022/07/06 07:24:15;;;;;;;0.47;0.40;;;18.10;99.90;;;;;;5035566;28;20221;-83
2022/07/06 07:26:41;;;;;;;0.40;0.40;;;18.20;99.90;;;;;;5039385;28;20190;-84
2022/07/06 07:29:07;;;;;;;1.60;0.50;;;18.30;99.90;;;;;;5037112;28;20185;-83
2022/07/06 07:31:32;;;;;;;0.40;0.40;;;18.10;99.90;;;;;;5036405;28;20210;-82
2022/07/06 07:33:58;;;;;;;0.27;0.27;;;18.40;99.90;;;;;;5036625;28;20273;-83
2022/07/06 07:36:25;;;;;;;1.33;0.80;;;18.40;99.90;;;;;;5037050;28;20223;-83
2022/07/06 07:38:50;;;;;;;0.40;0.30;;;18.80;99.90;;;;;;5037657;28;20174;-82
2022/07/06 07:41:16;;;;;;;0.30;0.30;;;19.00;99.90;;;;;;5034876;28;20198;-83
2022/07/06 07:43:42;;;;;;;0.20;0.20;;;19.10;99.90;;;;;;5036830;28;20190;-83
2022/07/06 07:46:08;;;;;;;0.23;0.23;;;18.90;99.90;;;;;;5042681;28;20663;-83
2022/07/06 07:48:34;;;;;;;0.20;0.20;;;19.10;99.90;;;;;;5035938;28;20191;-83
2022/07/06 07:50:59;;;;;;;0.20;0.20;;;19.30;99.90;;;;;;5034117;28;20206;-83
2022/07/06 07:53:25;;;;;;;0.20;0.20;;;19.50;99.90;;;;;;5033475;28;20679;-82
2022/07/06 07:55:50;;;;;;;0.30;0.30;;;19.40;99.90;;;;;;5038914;28;20216;-83
2022/07/06 07:58:16;;;;;;;0.50;0.50;;;19.30;99.90;;;;;;5036452;28;20182;-83
2022/07/06 08:00:41;;;;;;;0.50;0.50;;;19.30;99.90;;;;;;5036440;28;20693;-82
2022/07/06 08:03:07;;;;;;;0.30;0.30;;;19.40;99.90;;;;;;5034284;28;20719;-83
2022/07/06 08:05:32;;;;;;;0.40;0.40;;;19.60;99.90;;;;;;5034928;28;20205;-83
2022/07/06 08:07:58;;;;;;;0.37;0.37;;;19.80;99.90;;;;;;5037058;28;20535;-83
2022/07/06 08:10:24;;;;;;;0.40;0.40;;;19.80;99.90;;;;;;5034247;28;20197;-83
2022/07/06 08:12:49;;;;;;;0.50;0.40;;;19.80;99.90;;;;;;5037217;28;20197;-84
2022/07/06 08:15:15;;;;;;;0.30;0.30;;;19.60;99.90;;;;;;5035264;28;20189;-82
2022/07/06 08:17:40;;;;;;;0.40;0.40;;;19.30;99.90;;;;;;5035885;28;20658;-83
2022/07/06 08:20:07;;;;;;;0.87;0.43;;;19.60;99.90;;;;;;5034177;28;20218;-83
2022/07/06 08:22:35;;;;;;;0.23;0.23;;;19.90;99.90;;;;;;5037079;28;20186;-83
2022/07/06 08:25:01;;;;;;;0.40;0.40;;;19.60;99.90;;;;;;5036399;28;20516;-83
2022/07/06 08:27:27;;;;;;;4.10;0.50;;;19.80;99.90;;;;;;5033754;28;20219;-82
2022/07/06 08:29:52;;;;;;;0.20;0.20;;;20.00;99.90;;;;;;5034197;28;20202;-82
2022/07/06 08:32:19;;;;;;;0.20;0.20;;;20.20;99.90;;;;;;5031015;28;21497;-83
2022/07/06 08:34:45;;;;;;;0.30;0.30;;;19.90;99.90;;;;;;5033448;28;20272;-82
2022/07/06 08:37:11;;;;;;;0.30;0.30;;;19.90;99.90;;;;;;5034756;28;21093;-83
2022/07/06 08:39:36;;;;;;;0.20;0.20;;;19.90;99.90;;;;;;5033121;28;20176;-83
2022/07/06 08:42:02;;;;;;;0.30;0.30;;;19.60;99.90;;;;;;5034001;28;21200;-83
2022/07/06 08:44:29;;;;;;;0.30;0.30;;;19.60;99.90;;;;;;5033858;28;20726;-85
2022/07/06 08:46:57;;;;;;;0.43;0.43;;;19.20;99.90;;;;;;5034333;28;20189;-83
2022/07/06 08:49:23;;;;;;;0.30;0.30;;;19.60;99.90;;;;;;5036589;28;20202;-83
2022/07/06 08:51:49;;;;;;;0.23;0.23;;;20.00;99.90;;;;;;5034034;28;20272;-83
2022/07/06 08:54:15;;;;;;;0.47;0.30;;;20.40;99.90;;;;;;5034772;28;20929;-83
2022/07/06 08:56:41;;;;;;;0.20;0.20;;;20.60;99.90;;;;;;5034598;28;20242;-83
2022/07/06 08:59:10;;;;;;;0.30;0.30;;;20.50;99.90;;;;;;5035714;28;20189;-83
2022/07/06 09:01:38;;;;;;;0.30;0.30;;;20.20;99.90;;;;;;5034492;28;20297;-83
2022/07/06 09:04:08;;;;;;;0.40;0.40;;;19.80;99.90;;;;;;5033673;28;20189;-83
2022/07/06 09:06:35;;;;;;;2.73;1.07;;;20.10;99.90;;;;;;5032603;28;20206;-82
2022/07/06 09:09:05;;;;;;;0.73;0.47;;;19.90;99.90;;;;;;5032231;28;20184;-82
2022/07/06 09:11:31;;;;;;;0.23;0.23;;;20.20;99.90;;;;;;5033535;28;20217;-82
2022/07/06 09:13:57;;;;;;;0.40;0.40;;;20.50;99.90;;;;;;5033191;28;20186;-81
2022/07/06 09:16:28;;;;;;;0.93;0.83;;;20.60;99.90;;;;;;5034179;28;20210;-81
2022/07/06 09:18:54;;;;;;;0.53;0.53;;;19.90;99.90;;;;;;5035046;28;20224;-83
2022/07/06 09:21:31;;;;;;;0.40;0.40;;;20.10;99.90;;;;;;5035578;28;20458;-83
2022/07/06 09:23:58;;;;;;;0.60;0.60;;;21.00;99.90;;;;;;5033103;28;20189;-84
2022/07/06 09:26:25;;;;;;;0.30;0.30;;;20.80;99.90;;;;;;5035291;28;20612;-81
2022/07/06 09:28:51;;;;;;;0.60;0.60;;;21.10;99.90;;;;;;5033961;28;20180;-83
2022/07/06 09:31:17;;;;;;;0.60;0.33;;;21.50;99.90;;;;;;5032689;28;20376;-86
2022/07/06 09:33:55;;;;;;;0.93;0.50;;;21.50;99.90;;;;;;5035287;28;20852;-85
2022/07/06 09:36:46;;;;;;;0.30;0.30;;;21.30;99.90;;;;;;5035000;28;20705;-88
2022/07/06 09:39:28;;;;;;;0.70;0.70;;;21.40;99.90;;;;;;5058514;28;20178;-84
2022/07/06 09:41:59;;;;;;;0.40;0.40;;;20.80;99.90;;;;;;5034617;28;20178;-85
2022/07/06 09:44:29;;;;;;;1.13;0.70;;;21.20;99.90;;;;;;5035763;28;20229;-85
2022/07/06 09:47:02;;;;;;;0.40;0.40;;;21.40;99.90;;;;;;5034436;28;20194;-85
2022/07/06 09:49:28;;;;;;;0.30;0.30;;;21.40;99.90;;;;;;5033133;28;20189;-88
2022/07/06 09:51:56;;;;;;;0.67;0.60;;;21.20;99.90;;;;;;5034999;28;20748;-84
2022/07/06 09:54:22;;;;;;;0.47;0.47;;;21.00;99.90;;;;;;5036408;28;20188;-84
2022/07/06 09:56:52;;;;;;;0.50;0.50;;;21.20;99.90;;;;;;5033440;28;20209;-85
2022/07/06 09:59:21;;;;;;;1.30;0.60;;;21.50;99.90;;;;;;5035045;28;20185;-86
2022/07/06 10:01:50;;;;;;;0.30;0.30;;;21.50;99.90;;;;;;5041916;28;20574;-86
2022/07/06 10:04:19;;;;;;;0.73;0.73;;;21.50;99.90;;;;;;5035173;28;20647;-86
2022/07/06 10:06:45;;;;;;;0.67;0.50;;;21.60;99.90;;;;;;5034331;28;20197;-85
2022/07/06 10:09:12;;;;;;;0.50;0.50;;;21.50;99.90;;;;;;5038500;28;20182;-85
2022/07/06 10:11:40;;;;;;;1.40;0.50;;;21.60;99.90;;;;;;5037895;28;20201;-85
2022/07/06 10:14:11;;;;;;;0.30;0.30;;;21.70;99.90;;;;;;5037169;28;20198;-85
2022/07/06 10:16:38;;;;;;;0.50;0.50;;;22.00;99.90;;;;;;5037480;28;20226;-87
2022/07/06 10:19:09;;;;;;;0.40;0.40;;;21.80;99.90;;;;;;5044262;28;20177;-84
2022/07/06 10:21:39;;;;;;;1.60;1.30;;;20.90;99.90;;;;;;5035633;28;20202;-84
2022/07/06 10:24:09;;;;;;;0.50;0.50;;;21.50;99.90;;;;;;5037230;28;20186;-87
2022/07/06 10:26:35;;;;;;;0.50;0.50;;;22.20;99.90;;;;;;5040088;28;20186;-85
2022/07/06 10:29:04;;;;;;;0.23;0.23;;;22.10;99.90;;;;;;5038457;28;20181;-85
2022/07/06 10:31:33;;;;;;;0.60;0.60;;;21.90;99.90;;;;;;5037196;28;20204;-85
2022/07/06 10:34:03;;;;;;;0.30;0.30;;;22.10;99.90;;;;;;5038072;28;22369;-86
2022/07/06 10:36:30;;;;;;;0.47;0.40;;;22.10;99.90;;;;;;5037479;28;20210;-84
2022/07/06 10:38:57;;;;;;;0.37;0.37;;;21.00;99.90;;;;;;5037614;28;20193;-84
2022/07/06 10:41:35;;;;;;;0.20;0.20;;;21.40;99.90;;;;;;5037740;28;20205;-84
2022/07/06 10:44:21;;;;;;;0.30;0.30;;;21.70;99.90;;;;;;5036670;28;20340;-86
2022/07/06 10:46:58;;;;;;;0.50;0.50;;;22.10;99.90;;;;;;5035216;28;20186;-87
2022/07/06 10:49:25;;;;;;;1.80;1.50;;;22.40;99.90;;;;;;5039714;28;20184;-85
2022/07/06 10:51:56;;;;;;;0.30;0.30;;;22.70;99.90;;;;;;5046094;28;20177;-84
2022/07/06 10:54:23;;;;;;;0.20;0.20;;;22.40;99.90;;;;;;5036742;28;20265;-84
2022/07/06 10:56:53;;;;;;;0.40;0.40;;;22.70;99.90;;;;;;5044451;28;20210;-84
2022/07/06 10:59:23;;;;;;;0.53;0.40;;;23.20;99.90;;;;;;5052966;28;20175;-84
2022/07/06 11:02:18;;;;;;;0.30;0.30;;;23.50;99.90;;;;;;5036592;28;20202;-86
2022/07/06 11:04:48;;;;;;;0.30;0.30;;;23.00;99.90;;;;;;5037420;28;20177;-87
2022/07/06 11:07:15;;;;;;;0.70;0.60;;;23.50;99.90;;;;;;5038089;28;20633;-86
2022/07/06 11:09:59;;;;;;;0.40;0.40;;;23.00;99.90;;;;;;5037677;28;20205;-85
2022/07/06 11:12:24;;;;;;;0.40;0.40;;;23.10;99.90;;;;;;5037530;28;20202;-84
2022/07/06 11:14:53;;;;;;;0.20;0.20;;;23.20;99.90;;;;;;5036290;28;20625;-85
2022/07/06 11:17:20;;;;;;;0.30;0.30;;;23.40;99.90;;;;;;5037546;28;20573;-85
2022/07/06 11:20:10;;;;;;;0.50;0.43;;;23.70;99.90;;;;;;5036609;28;20225;-86
2022/07/06 11:22:37;;;;;;;0.47;0.47;;;22.80;99.90;;;;;;5043074;28;20190;-85
2022/07/06 11:25:03;;;;;;;0.30;0.30;;;22.80;99.90;;;;;;5042548;28;20190;-83
2022/07/06 11:27:29;;;;;;;0.37;0.37;;;23.00;99.90;;;;;;5042620;28;20178;-84
2022/07/06 11:29:55;;;;;;;0.40;0.40;;;22.10;99.90;;;;;;5038163;28;20266;-84
2022/07/06 11:32:25;;;;;;;0.27;0.27;;;22.20;99.90;;;;;;5036464;28;20269;-84
2022/07/06 11:34:51;;;;;;;0.30;0.30;;;22.70;99.90;;;;;;5055767;28;20226;-83
2022/07/06 11:37:17;;;;;;;0.40;0.40;;;23.40;99.90;;;;;;5034370;28;20222;-83
2022/07/06 11:39:45;;;;;;;0.20;0.20;;;23.90;99.90;;;;;;5039058;28;20171;-84
2022/07/06 11:42:13;;;;;;;0.87;0.30;;;23.70;99.90;;;;;;5035783;28;20622;-83
2022/07/06 11:44:40;;;;;;;0.20;0.20;;;23.50;99.90;;;;;;5035954;28;20190;-84
2022/07/06 11:47:07;;;;;;;0.50;0.50;;;23.10;99.90;;;;;;5037403;28;20406;-83
2022/07/06 11:49:34;;;;;;;0.50;0.50;;;22.20;99.90;;;;;;5036085;28;20186;-83
2022/07/06 11:52:04;;;;;;;0.40;0.40;;;22.90;99.90;;;;;;5035940;28;20199;-83
2022/07/06 11:54:31;;;;;;;0.30;0.30;;;23.30;99.90;;;;;;5040828;28;20182;-83
2022/07/06 11:56:59;;;;;;;0.60;0.60;;;23.30;99.90;;;;;;5042099;28;20206;-83
2022/07/06 11:59:29;;;;;;;0.63;0.60;;;23.70;99.90;;;;;;5036784;28;20193;-83
2022/07/06 12:02:04;;;;;;;0.30;0.30;;;23.80;99.90;;;;;;5037734;28;20568;-84
2022/07/06 12:04:32;;;;;;;0.30;0.30;;;23.50;99.90;;;;;;5036593;28;20173;-82
2022/07/06 12:07:07;;;;;;;0.30;0.30;;;23.30;99.90;;;;;;5033268;28;20610;-84
2022/07/06 12:09:37;;;;;;;1.00;1.00;;;23.60;99.90;;;;;;5036046;28;20686;-84
2022/07/06 12:12:04;;;;;;;0.30;0.30;;;22.80;99.90;;;;;;5036141;28;20563;-82
2022/07/06 12:14:31;;;;;;;0.60;0.60;;;23.30;99.90;;;;;;5032439;28;21213;-82
2022/07/06 12:17:03;;;;;;;0.43;0.43;;;23.30;99.90;;;;;;5033575;28;20213;-81
2022/07/06 12:19:29;;;;;;;0.83;0.57;;;22.90;99.90;;;;;;5038568;28;20186;-83
2022/07/06 12:21:56;;;;;;;0.30;0.30;;;22.20;99.90;;;;;;5034181;28;20244;-83
2022/07/06 12:24:27;;;;;;;0.50;0.40;;;22.90;99.90;;;;;;5036914;28;20205;-83
2022/07/06 12:26:54;;;;;;;0.57;0.57;;;23.10;99.90;;;;;;5037486;28;20220;-83
2022/07/06 12:29:21;;;;;;;0.30;0.30;;;23.60;99.90;;;;;;5033488;28;20198;-83
2022/07/06 12:31:55;;;;;;;0.30;0.30;;;24.10;99.90;;;;;;5035759;28;20205;-83
2022/07/06 12:34:34;;;;;;;0.30;0.30;;;24.10;99.90;;;;;;5042227;28;20651;-83
2022/07/06 12:37:06;;;;;;;0.30;0.30;;;24.10;99.90;;;;;;5035442;28;20262;-83
2022/07/06 12:39:31;;;;;;;0.40;0.40;;;23.40;99.90;;;;;;5036375;28;20214;-83
2022/07/06 12:42:02;;;;;;;0.47;0.47;;;22.50;99.90;;;;;;5036178;28;20217;-83
2022/07/06 12:44:28;;;;;;;0.50;0.50;;;22.40;99.90;;;;;;5036986;28;20186;-83
2022/07/06 12:47:05;;;;;;;0.40;0.37;;;22.20;99.90;;;;;;5037681;28;20243;-83
2022/07/06 12:49:31;;;;;;;0.30;0.30;;;22.20;99.90;;;;;;5044098;28;20181;-83
2022/07/06 12:52:07;;;;;;;0.40;0.40;;;22.40;99.90;;;;;;5033764;28;20202;-83